Terminal Aerodrome Forecast
Issued by NWS Northern Indiana

Home | Current Version | Previous Version | Text Only | Print | Product List | Glossary On
Versions: 1 2 3 4 5 6 7 8 9 10 11 12 13 14 15 16 17 18 19
000
FTUS43 KIWX 211400 AAB
TAFFWA
TAF AMD
KFWA 211429Z 2114/2212 24008KT 6SM -SHRA BKN015 OVC060
      TEMPO 2115/2118 4SM TSRA BR BKN012CB
     FM211800 22010KT P6SM VCTS SCT060CB
     FM212000 23007KT P6SM VCTS BKN060CB
     FM220500 20005KT 4SM TSRA OVC035CB=

USA.gov is the U.S. government's official web portal to all federal, state and local government web resources and services.